createdAt,value
2018-09-09T00:02:35.536Z,11.26
2018-09-09T00:05:40.160Z,11.24
2018-09-09T00:08:44.510Z,11.33
2018-09-09T00:11:48.932Z,11.32
2018-09-09T00:14:53.930Z,11.24
2018-09-09T00:17:58.389Z,11.24
2018-09-09T00:21:03.292Z,11.24
2018-09-09T00:24:09.874Z,11.18
2018-09-09T00:27:14.954Z,11.16
2018-09-09T00:30:19.984Z,11.13
2018-09-09T00:33:25.672Z,11.05
2018-09-09T00:36:30.024Z,11.02
2018-09-09T00:39:34.406Z,10.99
2018-09-09T00:42:38.790Z,10.96
2018-09-09T00:45:43.987Z,10.91
2018-09-09T00:48:52.724Z,10.87
2018-09-09T00:52:02.391Z,10.83
2018-09-09T00:55:06.750Z,10.83
2018-09-09T00:58:11.518Z,10.82
2018-09-09T01:01:26.116Z,10.88
2018-09-09T01:04:31.034Z,10.92
2018-09-09T01:07:35.413Z,10.92
2018-09-09T01:10:39.774Z,10.97
2018-09-09T01:13:44.131Z,11.00
2018-09-09T01:16:48.479Z,10.93
2018-09-09T01:19:52.889Z,10.96
2018-09-09T01:22:57.432Z,10.89
2018-09-09T01:26:03.417Z,10.82
2018-09-09T01:29:07.803Z,10.77
2018-09-09T01:32:12.227Z,10.70
2018-09-09T01:35:16.702Z,10.67
2018-09-09T01:38:21.063Z,10.64
2018-09-09T01:41:25.418Z,10.64
2018-09-09T01:44:29.963Z,10.66
2018-09-09T01:47:34.334Z,10.69
2018-09-09T01:50:38.806Z,10.70
2018-09-09T01:53:43.265Z,10.67
2018-09-09T01:56:47.650Z,10.68
2018-09-09T01:59:52.194Z,10.67
2018-09-09T02:02:56.564Z,10.62
2018-09-09T02:06:04.247Z,10.60
2018-09-09T02:09:08.725Z,10.58
2018-09-09T02:12:13.067Z,10.52
2018-09-09T02:15:17.415Z,10.50
2018-09-09T02:18:21.759Z,10.48
2018-09-09T02:21:26.080Z,10.47
2018-09-09T02:24:30.433Z,10.45
2018-09-09T02:27:34.844Z,10.41
2018-09-09T02:30:39.259Z,10.41
2018-09-09T02:33:43.635Z,10.40
2018-09-09T02:36:48.022Z,10.42
2018-09-09T02:39:52.382Z,10.40
2018-09-09T02:42:56.746Z,10.39
2018-09-09T02:46:01.087Z,10.34
2018-09-09T02:49:05.443Z,10.36
2018-09-09T02:52:09.853Z,10.32
2018-09-09T02:55:14.220Z,10.31
2018-09-09T02:58:18.564Z,10.23
2018-09-09T03:01:22.900Z,10.23
2018-09-09T03:04:27.313Z,10.15
2018-09-09T03:07:32.025Z,10.12
2018-09-09T03:10:37.590Z,10.08
2018-09-09T03:13:43.365Z,10.06
2018-09-09T03:16:48.038Z,10.04
2018-09-09T03:19:52.406Z,10.04
2018-09-09T03:22:56.912Z,9.98
2018-09-09T03:26:01.863Z,10.07
2018-09-09T03:29:07.383Z,10.09
2018-09-09T03:32:11.765Z,10.09
2018-09-09T03:35:16.127Z,10.09
2018-09-09T03:38:20.687Z,10.27
2018-09-09T03:41:25.444Z,10.10
2018-09-09T03:44:30.033Z,10.11
2018-09-09T03:47:34.439Z,10.20
2018-09-09T03:50:38.787Z,10.24
2018-09-09T03:53:43.277Z,10.22
2018-09-09T03:56:47.683Z,10.13
2018-09-09T03:59:52.698Z,10.12
2018-09-09T04:02:57.336Z,10.12
2018-09-09T04:06:01.840Z,10.12
2018-09-09T04:09:07.878Z,10.04
2018-09-09T04:12:12.341Z,10.03
2018-09-09T04:15:16.710Z,9.97
2018-09-09T04:18:21.048Z,9.90
2018-09-09T04:21:25.475Z,9.94
2018-09-09T04:24:29.784Z,9.97
2018-09-09T04:27:34.154Z,9.97
2018-09-09T04:30:38.593Z,10.01
2018-09-09T04:33:43.011Z,9.97
2018-09-09T04:36:47.676Z,10.09
2018-09-09T04:39:52.280Z,10.15
2018-09-09T04:42:56.633Z,10.32
2018-09-09T04:46:01.008Z,10.33
2018-09-09T04:49:05.319Z,10.34
2018-09-09T04:52:09.664Z,10.33
2018-09-09T04:55:14.040Z,10.40
2018-09-09T04:58:18.342Z,10.42
2018-09-09T05:01:23.016Z,10.48
2018-09-09T05:04:27.297Z,10.55
2018-09-09T05:07:31.725Z,10.55
2018-09-09T05:10:36.339Z,10.61
2018-09-09T05:13:40.709Z,10.74
2018-09-09T05:16:45.054Z,10.71
2018-09-09T05:19:49.578Z,10.71
2018-09-09T05:22:54.016Z,10.75
2018-09-09T05:25:58.472Z,10.79
2018-09-09T05:29:02.846Z,10.88
2018-09-09T05:32:07.922Z,10.96
2018-09-09T05:35:12.297Z,11.04
2018-09-09T05:38:17.007Z,11.15
2018-09-09T05:41:21.677Z,11.45
2018-09-09T05:44:26.265Z,11.44
2018-09-09T05:47:30.775Z,11.57
2018-09-09T05:50:35.985Z,11.60
2018-09-09T05:53:40.539Z,11.85
2018-09-09T05:56:44.954Z,12.04
2018-09-09T05:59:49.318Z,12.20
2018-09-09T06:02:53.913Z,12.76
2018-09-09T06:05:58.375Z,13.21
2018-09-09T06:09:03.171Z,13.55
2018-09-09T06:12:07.602Z,13.86
2018-09-09T06:15:12.093Z,14.84
2018-09-09T06:18:16.574Z,15.01
2018-09-09T06:21:21.445Z,16.11
2018-09-09T06:24:26.608Z,16.39
2018-09-09T06:27:31.997Z,15.94
2018-09-09T06:30:36.609Z,15.87
2018-09-09T06:33:41.254Z,17.24
2018-09-09T06:36:45.602Z,19.07
2018-09-09T06:39:50.241Z,20.46
2018-09-09T06:42:54.617Z,20.80
2018-09-09T06:45:58.990Z,20.99
2018-09-09T06:49:03.598Z,21.42
2018-09-09T06:52:07.954Z,21.89
2018-09-09T06:55:13.112Z,22.50
2018-09-09T06:58:17.819Z,23.00
2018-09-09T07:01:22.176Z,23.30
2018-09-09T07:04:26.822Z,23.86
2018-09-09T07:07:31.206Z,24.07
2018-09-09T07:10:36.031Z,24.28
2018-09-09T07:13:40.361Z,24.45
2018-09-09T07:16:44.895Z,25.13
2018-09-09T07:19:50.335Z,25.85
2018-09-09T07:22:55.225Z,26.25
2018-09-09T07:26:00.316Z,26.27
2018-09-09T07:29:04.669Z,26.71
2018-09-09T07:32:09.359Z,27.09
2018-09-09T07:35:13.756Z,26.70
2018-09-09T07:38:18.173Z,26.02
2018-09-09T07:41:22.590Z,24.59
2018-09-09T07:44:27.038Z,24.11
2018-09-09T07:47:31.884Z,23.35
2018-09-09T07:50:36.462Z,23.21
2018-09-09T07:53:41.149Z,23.86
2018-09-09T07:56:45.648Z,23.12
2018-09-09T07:59:50.654Z,22.31
2018-09-09T08:02:55.115Z,21.66
2018-09-09T08:06:00.125Z,21.19
2018-09-09T08:09:06.081Z,21.52
2018-09-09T08:12:10.572Z,21.71
2018-09-09T08:15:15.799Z,21.97
2018-09-09T08:18:20.294Z,21.84
2018-09-09T08:21:24.779Z,23.01
2018-09-09T08:24:30.405Z,22.83
2018-09-09T08:27:35.493Z,23.01
2018-09-09T08:30:40.498Z,22.46
2018-09-09T08:33:44.866Z,22.15
2018-09-09T08:36:49.837Z,21.78
2018-09-09T08:39:54.625Z,22.39
2018-09-09T08:42:59.169Z,21.82
2018-09-09T08:46:04.087Z,21.31
2018-09-09T08:49:08.566Z,21.28
2018-09-09T08:52:13.091Z,21.39
2018-09-09T08:55:17.369Z,21.24
2018-09-09T08:58:22.476Z,21.32
2018-09-09T09:01:27.961Z,21.43
2018-09-09T09:04:32.501Z,21.24
2018-09-09T09:07:36.937Z,21.45
2018-09-09T09:10:41.370Z,21.64
2018-09-09T09:13:46.003Z,22.21
2018-09-09T09:16:50.435Z,22.25
2018-09-09T09:19:54.920Z,22.56
2018-09-09T09:22:59.417Z,22.76
2018-09-09T09:26:03.851Z,22.71
2018-09-09T09:29:08.298Z,22.20
2018-09-09T09:32:13.211Z,22.09
2018-09-09T09:35:17.986Z,21.90
2018-09-09T09:38:23.090Z,22.33
2018-09-09T09:41:27.596Z,22.49
2018-09-09T09:44:32.572Z,22.91
2018-09-09T09:47:37.265Z,23.08
2018-09-09T09:50:42.295Z,22.94
2018-09-09T09:53:47.385Z,23.21
2018-09-09T09:56:51.927Z,22.66
2018-09-09T09:59:56.433Z,22.81
2018-09-09T10:03:00.846Z,23.20
2018-09-09T10:06:05.564Z,23.61
2018-09-09T10:09:10.146Z,23.83
2018-09-09T10:12:14.657Z,24.02
2018-09-09T10:15:19.137Z,23.85
2018-09-09T10:18:23.811Z,23.76
2018-09-09T10:21:28.394Z,23.36
2018-09-09T10:24:32.891Z,23.39
2018-09-09T10:27:37.553Z,23.55
2018-09-09T10:30:42.024Z,23.39
2018-09-09T10:33:46.449Z,23.57
2018-09-09T10:36:50.914Z,23.36
2018-09-09T10:39:55.438Z,23.61
2018-09-09T10:43:00.031Z,23.73
2018-09-09T10:46:04.779Z,23.13
2018-09-09T10:49:09.153Z,23.40
2018-09-09T10:52:13.569Z,23.48
2018-09-09T10:55:19.185Z,23.38
2018-09-09T10:58:23.542Z,22.97
2018-09-09T11:01:27.968Z,22.94
2018-09-09T11:04:32.716Z,22.85
2018-09-09T11:07:37.119Z,22.91
2018-09-09T11:10:41.606Z,23.26
2018-09-09T11:13:46.345Z,23.51
2018-09-09T11:16:50.805Z,23.74
2018-09-09T11:19:55.536Z,24.00
2018-09-09T11:22:59.870Z,24.15
2018-09-09T11:26:05.297Z,23.92
2018-09-09T11:29:09.821Z,24.00
2018-09-09T11:32:14.440Z,24.18
2018-09-09T11:35:19.106Z,24.33
2018-09-09T11:38:24.127Z,24.27
2018-09-09T11:41:28.554Z,24.43
2018-09-09T11:44:33.429Z,24.25
2018-09-09T11:47:39.356Z,24.18
2018-09-09T11:50:43.795Z,24.32
2018-09-09T11:53:48.155Z,24.93
2018-09-09T11:56:52.742Z,25.54
2018-09-09T11:59:57.361Z,25.06
2018-09-09T12:03:01.817Z,25.48
2018-09-09T12:06:06.840Z,25.69
2018-09-09T12:09:12.163Z,25.81
2018-09-09T12:12:16.886Z,25.30
2018-09-09T12:15:21.526Z,25.28
2018-09-09T12:18:25.937Z,25.14
2018-09-09T12:21:30.493Z,24.83
2018-09-09T12:24:34.835Z,24.77
2018-09-09T12:27:39.373Z,24.73
2018-09-09T12:30:43.766Z,24.10
2018-09-09T12:33:48.211Z,24.53
2018-09-09T12:36:52.672Z,24.75
2018-09-09T12:39:57.092Z,25.12
2018-09-09T12:43:06.981Z,25.41
2018-09-09T12:46:18.001Z,25.21
2018-09-09T12:49:23.340Z,24.57
2018-09-09T12:52:27.742Z,24.16
2018-09-09T12:55:32.640Z,23.97
2018-09-09T12:58:38.013Z,23.85
2018-09-09T13:01:43.640Z,23.87
2018-09-09T13:04:49.650Z,24.02
2018-09-09T13:07:54.385Z,24.00
2018-09-09T13:10:59.607Z,23.84
2018-09-09T13:14:04.391Z,23.97
2018-09-09T13:17:08.886Z,24.07
2018-09-09T13:20:13.481Z,24.22
2018-09-09T13:23:18.271Z,23.92
2018-09-09T13:26:22.973Z,23.88
2018-09-09T13:29:27.510Z,23.95
2018-09-09T14:12:41.463Z,23.83
2018-09-09T14:15:52.677Z,23.81
2018-09-09T14:19:32.263Z,23.78
2018-09-09T14:51:27.819Z,23.64
2018-09-09T14:54:32.986Z,23.69
2018-09-09T14:57:38.029Z,23.53
2018-09-09T15:00:43.533Z,23.56
2018-09-09T15:03:49.047Z,23.53
2018-09-09T15:06:54.498Z,23.61
2018-09-09T15:09:59.055Z,23.48
2018-09-09T15:13:04.400Z,23.53
2018-09-09T15:16:09.472Z,23.54
2018-09-09T15:19:14.056Z,23.52
2018-09-09T15:22:19.384Z,23.46
2018-09-09T15:25:24.358Z,23.43
2018-09-09T15:28:29.319Z,23.33
2018-09-09T15:31:33.891Z,23.29
2018-09-09T15:34:38.553Z,23.25
2018-09-09T15:37:43.438Z,23.13
2018-09-09T15:40:48.390Z,23.13
2018-09-09T15:43:53.241Z,23.15
2018-09-09T15:46:58.714Z,23.17
2018-09-09T15:50:03.737Z,22.98
2018-09-09T15:53:08.958Z,23.01
2018-09-09T15:56:13.825Z,23.00
2018-09-09T15:59:18.465Z,22.95
2018-09-09T16:02:24.591Z,22.97
2018-09-09T16:05:29.321Z,22.84
2018-09-09T16:08:34.168Z,22.61
2018-09-09T16:11:39.982Z,22.40
2018-09-09T16:14:45.084Z,22.22
2018-09-09T16:17:49.999Z,21.94
2018-09-09T16:21:06.951Z,21.85
2018-09-09T16:24:12.434Z,21.55
2018-09-09T16:27:17.765Z,21.59
2018-09-09T16:33:56.781Z,21.73
2018-09-09T16:37:01.658Z,21.47
2018-09-09T16:40:06.640Z,21.28
2018-09-09T16:43:11.414Z,21.17
2018-09-09T16:46:17.240Z,21.03
2018-09-09T16:49:21.918Z,21.02
2018-09-09T16:52:26.626Z,20.84
2018-09-09T16:56:34.798Z,20.68
2018-09-09T16:59:39.298Z,20.74
2018-09-09T17:02:44.535Z,20.56
2018-09-09T17:05:49.478Z,20.36
2018-09-09T17:08:55.334Z,20.24
2018-09-09T17:11:59.826Z,20.12
2018-09-09T17:15:04.717Z,20.00
2018-09-09T17:18:09.349Z,19.87
2018-09-09T17:21:14.005Z,19.68
2018-09-09T17:24:18.584Z,19.52
2018-09-09T17:27:23.275Z,19.35
2018-09-09T17:30:29.189Z,19.33
2018-09-09T17:33:33.705Z,19.20
2018-09-09T17:36:39.410Z,18.91
2018-09-09T17:39:44.058Z,18.63
2018-09-09T17:42:50.310Z,18.58
2018-09-09T17:45:55.476Z,18.28
2018-09-09T17:49:00.642Z,18.08
2018-09-09T17:52:05.938Z,17.92
2018-09-09T17:55:10.763Z,17.76
2018-09-09T17:58:16.175Z,17.62
2018-09-09T18:01:20.986Z,17.53
2018-09-09T18:04:25.844Z,17.45
2018-09-09T18:07:30.906Z,17.45
2018-09-09T18:10:36.857Z,17.34
2018-09-09T18:13:41.561Z,17.19
2018-09-09T18:16:46.154Z,17.01
2018-09-09T18:19:51.341Z,16.83
2018-09-09T18:22:56.224Z,16.71
2018-09-09T18:26:01.274Z,16.60
2018-09-09T18:29:06.166Z,16.51
2018-09-09T18:32:11.199Z,16.43
2018-09-09T18:35:17.828Z,16.31
2018-09-09T18:38:22.797Z,16.60
2018-09-09T18:41:27.321Z,16.88
2018-09-09T18:44:32.117Z,16.67
2018-09-09T18:47:36.936Z,16.25
2018-09-09T18:50:42.028Z,16.01
2018-09-09T18:53:47.978Z,15.82
2018-09-09T18:56:54.335Z,15.73
2018-09-09T18:59:58.874Z,15.64
2018-09-09T19:03:04.343Z,15.59
2018-09-09T19:06:09.335Z,15.50
2018-09-09T19:09:14.191Z,15.66
2018-09-09T19:12:18.759Z,15.86
2018-09-09T19:15:23.272Z,15.61
2018-09-09T19:18:27.921Z,15.43
2018-09-09T19:21:33.486Z,15.26
2018-09-09T19:24:38.180Z,15.14
2018-09-09T19:27:42.758Z,15.07
2018-09-09T19:30:48.970Z,15.07
2018-09-09T19:33:55.694Z,15.01
2018-09-09T19:37:01.721Z,14.98
2018-09-09T19:40:06.897Z,14.93
2018-09-09T19:43:12.884Z,15.17
2018-09-09T19:46:17.459Z,15.16
2018-09-09T19:49:21.922Z,14.94
2018-09-09T19:52:26.510Z,14.79
2018-09-09T19:55:31.012Z,14.69
2018-09-09T19:58:35.178Z,14.52
2018-09-09T20:01:39.750Z,14.51
2018-09-09T20:04:44.576Z,14.51
2018-09-09T20:07:48.932Z,14.56
2018-09-09T20:10:53.709Z,14.47
2018-09-09T20:13:58.282Z,14.42
2018-09-09T20:17:02.782Z,14.37
2018-09-09T20:20:08.944Z,14.34
2018-09-09T20:23:13.528Z,14.54
2018-09-09T20:26:17.985Z,14.35
2018-09-09T20:29:22.634Z,14.38
2018-09-09T20:32:27.727Z,14.15
2018-09-09T20:35:32.981Z,14.02
2018-09-09T20:38:38.477Z,13.91
2018-09-09T20:41:42.984Z,13.85
2018-09-09T20:44:47.629Z,13.80
2018-09-09T20:47:52.102Z,13.71
2018-09-09T20:50:57.823Z,13.76
2018-09-09T20:54:02.687Z,13.68
2018-09-09T20:57:07.380Z,13.64
2018-09-09T21:00:12.516Z,13.58
2018-09-09T21:03:17.107Z,13.50
2018-09-09T21:06:21.647Z,13.54
2018-09-09T21:09:26.089Z,13.52
2018-09-09T21:12:30.982Z,13.50
2018-09-09T21:15:36.022Z,13.51
2018-09-09T21:18:40.619Z,13.48
2018-09-09T21:21:45.866Z,13.36
2018-09-09T21:24:50.371Z,13.31
2018-09-09T21:27:54.815Z,13.28
2018-09-09T21:30:59.246Z,13.26
2018-09-09T21:34:03.632Z,13.23
2018-09-09T21:37:08.620Z,13.18
2018-09-09T21:40:13.837Z,13.09
2018-09-09T21:43:18.575Z,13.05
2018-09-09T21:46:23.207Z,13.03
2018-09-09T21:49:27.677Z,13.05
2018-09-09T21:52:32.089Z,13.07
2018-09-09T21:55:37.518Z,12.97
2018-09-09T21:58:42.508Z,12.89
2018-09-09T22:01:52.254Z,12.85
2018-09-09T22:04:57.636Z,12.80
2018-09-09T22:08:03.660Z,12.84
2018-09-09T22:11:08.156Z,12.80
2018-09-09T22:14:13.583Z,12.78
2018-09-09T22:17:18.966Z,12.71
2018-09-09T22:20:23.655Z,12.65
2018-09-09T22:23:28.313Z,12.67
2018-09-09T22:26:33.322Z,12.62
2018-09-09T22:29:38.385Z,12.61
2018-09-09T22:32:43.377Z,12.56
2018-09-09T22:35:47.906Z,12.53
2018-09-09T22:38:52.497Z,12.47
2018-09-09T22:41:57.058Z,12.46
2018-09-09T22:45:01.413Z,12.46
2018-09-09T22:48:06.031Z,12.47
2018-09-09T22:51:11.059Z,12.46
2018-09-09T22:54:16.648Z,12.45
2018-09-09T22:57:21.184Z,12.44
2018-09-09T23:00:25.581Z,12.43
2018-09-09T23:03:29.970Z,12.43
2018-09-09T23:06:34.384Z,12.38
2018-09-09T23:09:38.860Z,12.34
2018-09-09T23:12:43.244Z,12.30
2018-09-09T23:15:47.823Z,12.25
2018-09-09T23:18:52.175Z,12.24
2018-09-09T23:21:56.535Z,12.25
2018-09-09T23:25:00.878Z,12.25
2018-09-09T23:28:05.234Z,12.22
2018-09-09T23:31:09.916Z,12.22
2018-09-09T23:34:14.323Z,12.21
2018-09-09T23:37:18.686Z,12.19
2018-09-09T23:40:23.386Z,12.15
2018-09-09T23:43:27.752Z,12.16
2018-09-09T23:46:32.117Z,12.18
2018-09-09T23:49:36.497Z,12.15
2018-09-09T23:52:41.075Z,12.14
2018-09-09T23:55:45.825Z,12.06
2018-09-09T23:58:51.083Z,12.03
